createdAt,value
2022-09-07T00:01:05.937Z,1.95
2022-09-07T00:03:34.106Z,1.80
2022-09-07T00:06:08.162Z,2.10
2022-09-07T00:08:36.195Z,1.90
2022-09-07T00:11:06.250Z,1.75
2022-09-07T00:13:37.250Z,2.08
2022-09-07T00:16:06.969Z,1.90
2022-09-07T00:18:35.146Z,2.05
2022-09-07T00:21:05.560Z,2.03
2022-09-07T00:23:35.162Z,2.00
2022-09-07T00:26:05.284Z,2.00
2022-09-07T00:28:33.871Z,1.83
2022-09-07T00:31:03.323Z,1.70
2022-09-07T00:33:31.751Z,2.08
2022-09-07T00:36:00.215Z,1.90
2022-09-07T00:38:28.242Z,1.90
2022-09-07T00:40:56.294Z,1.73
2022-09-07T00:43:32.236Z,2.00
2022-09-07T00:46:00.430Z,2.13
2022-09-07T00:48:34.379Z,1.70
2022-09-07T00:51:05.652Z,1.92
2022-09-07T00:53:38.387Z,1.83
2022-09-07T00:56:07.725Z,1.95
2022-09-07T00:58:38.096Z,1.80
2022-09-07T01:01:06.266Z,1.90
2022-09-07T01:03:39.693Z,2.20
2022-09-07T01:06:13.473Z,1.70
2022-09-07T01:08:43.128Z,1.77
2022-09-07T01:11:11.759Z,1.70
2022-09-07T01:13:40.862Z,1.83
2022-09-07T01:16:18.719Z,2.00
2022-09-07T01:18:59.036Z,1.70
2022-09-07T01:21:34.700Z,1.70
2022-09-07T01:24:30.862Z,1.90
2022-09-07T01:27:17.202Z,1.80
2022-09-07T01:29:55.350Z,1.75
2022-09-07T01:32:29.873Z,1.85
2022-09-07T01:34:58.339Z,1.95
2022-09-07T01:37:32.907Z,1.90
2022-09-07T01:40:08.611Z,1.40
2022-09-07T01:42:45.789Z,1.73
2022-09-07T01:45:18.427Z,1.73
2022-09-07T01:47:49.348Z,1.88
2022-09-07T01:50:21.552Z,1.70
2022-09-07T01:52:55.447Z,1.58
2022-09-07T01:55:29.430Z,1.52
2022-09-07T01:58:01.276Z,2.10
2022-09-07T02:00:32.374Z,1.80
2022-09-07T02:03:05.494Z,2.25
2022-09-07T02:05:36.948Z,2.72
2022-09-07T02:08:12.811Z,2.30
2022-09-07T02:10:45.419Z,2.72
2022-09-07T02:13:17.964Z,2.90
2022-09-07T02:15:53.031Z,2.65
2022-09-07T02:18:22.671Z,2.63
2022-09-07T02:20:54.374Z,2.72
2022-09-07T02:23:27.155Z,2.90
2022-09-07T02:26:02.120Z,2.53
2022-09-07T02:28:33.389Z,2.35
2022-09-07T02:31:03.277Z,2.83
2022-09-07T02:33:32.030Z,3.05
2022-09-07T02:36:01.168Z,3.20
2022-09-07T02:38:29.322Z,3.05
2022-09-07T02:40:59.444Z,2.83
2022-09-07T02:43:28.793Z,2.70
2022-09-07T02:46:19.428Z,3.10
2022-09-07T02:48:59.142Z,2.72
2022-09-07T02:51:33.394Z,3.38
2022-09-07T02:54:21.450Z,3.58
2022-09-07T02:57:01.002Z,3.13
2022-09-07T02:59:42.498Z,3.25
2022-09-07T03:02:19.877Z,3.63
2022-09-07T03:04:52.142Z,3.63
2022-09-07T03:07:24.208Z,3.35
2022-09-07T03:09:55.450Z,3.55
2022-09-07T03:12:23.510Z,3.10
2022-09-07T03:14:51.500Z,3.30
2022-09-07T03:17:20.887Z,3.15
2022-09-07T03:19:48.882Z,3.90
2022-09-07T03:22:16.897Z,2.83
2022-09-07T03:24:44.879Z,3.45
2022-09-07T03:27:12.988Z,3.00
2022-09-07T03:29:42.117Z,2.78
2022-09-07T03:32:10.287Z,3.28
2022-09-07T03:34:39.614Z,3.45
2022-09-07T03:37:07.599Z,2.75
2022-09-07T03:39:36.445Z,3.10
2022-09-07T03:42:04.654Z,3.25
2022-09-07T03:44:33.126Z,3.15
2022-09-07T03:47:01.129Z,3.10
2022-09-07T03:49:29.195Z,2.72
2022-09-07T03:51:58.550Z,2.85
2022-09-07T03:54:26.727Z,3.10
2022-09-07T03:56:54.717Z,2.90
2022-09-07T03:59:22.782Z,2.63
2022-09-07T04:01:50.806Z,2.53
2022-09-07T04:04:18.817Z,3.20
2022-09-07T04:06:46.826Z,2.65
2022-09-07T04:09:16.290Z,2.58
2022-09-07T04:11:44.281Z,2.53
2022-09-07T04:14:12.991Z,2.90
2022-09-07T04:16:42.116Z,2.75
2022-09-07T04:19:10.131Z,2.80
2022-09-07T04:21:38.183Z,3.08
2022-09-07T04:24:06.795Z,3.40
2022-09-07T04:26:37.138Z,2.78
2022-09-07T04:29:06.447Z,2.60
2022-09-07T04:31:35.226Z,3.40
2022-09-07T04:34:03.877Z,2.90
2022-09-07T04:36:32.012Z,3.30
2022-09-07T04:39:01.902Z,3.38
2022-09-07T04:41:32.062Z,3.75
2022-09-07T04:44:03.513Z,3.80
2022-09-07T04:46:35.077Z,4.20
2022-09-07T04:49:05.533Z,4.70
2022-09-07T04:51:34.169Z,4.45
2022-09-07T04:54:03.911Z,4.22
2022-09-07T04:56:33.093Z,4.05
2022-09-07T04:59:03.266Z,4.20
2022-09-07T05:01:31.930Z,3.83
2022-09-07T05:04:01.605Z,4.63
2022-09-07T05:06:30.378Z,4.07
2022-09-07T05:08:59.967Z,4.20
2022-09-07T05:11:29.725Z,4.20
2022-09-07T05:13:58.263Z,4.68
2022-09-07T05:16:28.503Z,4.28
2022-09-07T05:18:58.243Z,5.07
2022-09-07T05:21:28.248Z,4.70
2022-09-07T05:23:58.086Z,4.65
2022-09-07T05:26:27.890Z,4.60
2022-09-07T05:31:45.818Z,4.53
2022-09-07T05:34:30.946Z,4.95
2022-09-07T05:36:59.759Z,4.40
2022-09-07T05:39:28.289Z,4.50
2022-09-07T05:41:56.438Z,4.53
2022-09-07T05:47:14.398Z,4.78
2022-09-07T05:49:42.638Z,5.47
2022-09-07T05:52:11.082Z,5.03
2022-09-07T05:54:39.114Z,4.57
2022-09-07T05:57:07.903Z,4.72
2022-09-07T05:59:36.208Z,4.30
2022-09-07T06:02:04.392Z,5.03
2022-09-07T06:04:33.911Z,4.78
2022-09-07T06:07:21.228Z,4.95
2022-09-07T06:12:38.091Z,4.72
2022-09-07T06:15:06.964Z,5.28
2022-09-07T06:17:35.627Z,5.20
2022-09-07T06:20:06.162Z,4.85
2022-09-07T06:22:36.779Z,4.95
2022-09-07T06:25:05.201Z,4.90
2022-09-07T06:27:33.362Z,5.22
2022-09-07T06:30:01.355Z,5.03
2022-09-07T06:32:45.541Z,4.95
2022-09-07T06:35:16.201Z,5.03
2022-09-07T06:37:44.678Z,4.90
2022-09-07T06:40:13.529Z,4.80
2022-09-07T06:42:41.567Z,4.38
2022-09-07T06:45:11.410Z,4.57
2022-09-07T06:47:40.036Z,4.90
2022-09-07T06:50:09.176Z,4.47
2022-09-07T06:55:27.783Z,4.70
2022-09-07T06:57:55.835Z,4.50
2022-09-07T07:00:24.201Z,4.50
2022-09-07T07:02:52.316Z,4.20
2022-09-07T07:05:20.383Z,4.05
2022-09-07T07:07:49.722Z,3.92
2022-09-07T07:10:22.204Z,3.58
2022-09-07T07:12:56.684Z,3.80
2022-09-07T07:15:27.107Z,3.88
2022-09-07T07:17:59.064Z,4.07
2022-09-07T07:20:33.421Z,3.80
2022-09-07T07:23:02.785Z,4.00
2022-09-07T07:25:31.176Z,3.95
2022-09-07T07:30:47.155Z,4.07
2022-09-07T07:33:15.188Z,3.25
2022-09-07T07:35:43.235Z,3.28
2022-09-07T07:43:49.471Z,3.33
2022-09-07T07:46:18.365Z,3.95
2022-09-07T07:48:49.308Z,3.63
2022-09-07T07:51:17.307Z,3.35
2022-09-07T07:53:46.920Z,3.40
2022-09-07T07:56:15.265Z,3.60
2022-09-07T07:58:47.039Z,3.90
2022-09-07T08:01:17.224Z,3.45
2022-09-07T08:03:46.847Z,3.38
2022-09-07T08:06:16.547Z,3.65
2022-09-07T08:08:46.297Z,3.47
2022-09-07T08:11:16.921Z,4.10
2022-09-07T08:13:46.652Z,4.22
2022-09-07T08:16:15.272Z,4.70
2022-09-07T08:18:47.053Z,4.05
2022-09-07T08:21:16.568Z,3.90
2022-09-07T08:23:45.919Z,3.72
2022-09-07T08:26:14.147Z,4.38
2022-09-07T08:28:43.929Z,4.60
2022-09-07T08:31:14.096Z,4.78
2022-09-07T08:33:42.855Z,4.55
2022-09-07T08:36:13.331Z,5.30
2022-09-07T08:38:41.886Z,4.70
2022-09-07T08:41:43.414Z,4.50
2022-09-07T08:44:17.334Z,4.57
2022-09-07T08:46:50.125Z,4.18
2022-09-07T08:49:22.320Z,4.18
2022-09-07T08:51:56.082Z,4.10
2022-09-07T08:54:24.096Z,4.18
2022-09-07T08:59:49.651Z,4.80
2022-09-07T09:02:40.211Z,4.35
2022-09-07T09:05:21.713Z,4.72
2022-09-07T09:08:04.531Z,4.22
2022-09-07T09:10:42.210Z,4.50
2022-09-07T09:13:18.337Z,4.32
2022-09-07T09:15:54.193Z,4.85
2022-09-07T09:18:36.881Z,4.43
2022-09-07T09:21:07.923Z,5.03
2022-09-07T09:23:40.522Z,4.82
2022-09-07T09:26:14.414Z,4.70
2022-09-07T09:28:43.775Z,4.57
2022-09-07T09:31:19.532Z,4.20
2022-09-07T09:34:09.066Z,4.38
2022-09-07T09:36:42.663Z,4.55
2022-09-07T09:39:28.199Z,4.05
2022-09-07T09:41:59.576Z,4.40
2022-09-07T09:44:34.053Z,4.78
2022-09-07T09:49:53.604Z,4.70
2022-09-07T09:52:29.198Z,4.63
2022-09-07T09:55:17.152Z,3.53
2022-09-07T10:04:02.676Z,3.60
2022-09-07T10:06:32.520Z,3.20
2022-09-07T10:09:02.872Z,4.05
2022-09-07T10:14:36.991Z,3.58
2022-09-07T10:17:26.008Z,4.00
2022-09-07T10:19:54.256Z,3.15
2022-09-07T10:22:26.007Z,3.65
2022-09-07T10:24:54.053Z,3.80
2022-09-07T10:27:31.408Z,3.63
2022-09-07T10:29:59.923Z,3.08
2022-09-07T10:32:52.164Z,3.20
2022-09-07T10:35:27.117Z,3.10
2022-09-07T10:38:04.800Z,3.03
2022-09-07T10:40:35.716Z,3.28
2022-09-07T10:43:23.628Z,3.10
2022-09-07T10:46:11.899Z,2.88
2022-09-07T10:48:53.798Z,2.78
2022-09-07T10:51:29.379Z,2.58
2022-09-07T10:57:03.470Z,2.72
2022-09-07T11:02:41.098Z,2.47
2022-09-07T11:05:23.263Z,2.38
2022-09-07T11:08:05.724Z,1.98
2022-09-07T11:10:41.336Z,2.47
2022-09-07T11:13:15.564Z,2.55
2022-09-07T11:15:46.856Z,2.40
2022-09-07T11:18:21.007Z,2.20
2022-09-07T11:20:55.829Z,2.30
2022-09-07T11:23:27.855Z,2.55
2022-09-07T11:26:03.264Z,2.50
2022-09-07T11:28:44.705Z,2.35
2022-09-07T11:31:20.885Z,2.38
2022-09-07T11:36:58.524Z,2.38
2022-09-07T11:39:35.371Z,2.33
2022-09-07T11:45:00.719Z,2.30
2022-09-07T11:47:34.997Z,2.15
2022-09-07T11:50:03.127Z,2.50
2022-09-07T11:52:38.278Z,2.42
2022-09-07T11:55:11.441Z,2.50
2022-09-07T11:57:57.293Z,2.38
2022-09-07T12:00:33.216Z,2.53
2022-09-07T12:03:22.610Z,2.30
2022-09-07T12:06:32.780Z,2.90
2022-09-07T12:09:16.428Z,2.15
2022-09-07T12:12:13.172Z,2.28
2022-09-07T12:14:53.771Z,2.20
2022-09-07T12:17:32.546Z,2.10
2022-09-07T12:20:15.478Z,2.10
2022-09-07T12:23:04.802Z,2.38
2022-09-07T12:25:35.788Z,1.80
2022-09-07T12:28:04.285Z,2.05
2022-09-07T12:30:57.626Z,2.10
2022-09-07T12:33:36.312Z,1.73
2022-09-07T12:36:35.259Z,1.88
2022-09-07T12:39:21.003Z,2.20
2022-09-07T12:44:42.210Z,2.30
2022-09-07T12:47:29.559Z,2.08
2022-09-07T12:50:19.577Z,2.10
2022-09-07T12:53:08.035Z,2.10
2022-09-07T12:58:57.207Z,2.63
2022-09-07T13:01:46.496Z,2.70
2022-09-07T13:04:46.860Z,2.63
2022-09-07T13:08:07.236Z,2.63
2022-09-07T13:10:38.088Z,2.20
2022-09-07T13:13:07.579Z,2.20
2022-09-07T13:15:48.584Z,2.20
2022-09-07T13:18:41.624Z,2.10
2022-09-07T13:21:48.783Z,2.45
2022-09-07T13:24:55.255Z,2.05
2022-09-07T13:27:42.747Z,1.92
2022-09-07T13:30:30.191Z,2.10
2022-09-07T13:33:36.066Z,1.95
2022-09-07T13:36:06.548Z,1.70
2022-09-07T13:38:37.538Z,1.80
2022-09-07T13:41:12.888Z,2.40
2022-09-07T13:43:46.913Z,1.80
2022-09-07T13:46:29.219Z,1.83
2022-09-07T13:49:07.482Z,2.10
2022-09-07T13:51:43.166Z,1.60
2022-09-07T13:54:19.615Z,1.42
2022-09-07T13:56:56.197Z,1.67
2022-09-07T13:59:27.423Z,1.20
2022-09-07T14:01:57.139Z,1.50
2022-09-07T14:04:27.329Z,1.63
2022-09-07T14:07:06.717Z,1.30
2022-09-07T14:09:35.210Z,1.40
2022-09-07T14:12:03.528Z,1.10
2022-09-07T14:14:33.340Z,1.40
2022-09-07T14:17:05.614Z,1.02
2022-09-07T14:19:38.700Z,1.60
2022-09-07T14:22:12.368Z,0.85
2022-09-07T14:24:42.245Z,1.30
2022-09-07T14:27:22.058Z,1.23
2022-09-07T14:29:50.662Z,1.15
2022-09-07T14:32:21.655Z,1.08
2022-09-07T14:34:50.666Z,1.00
2022-09-07T14:37:23.138Z,1.33
2022-09-07T14:39:52.902Z,1.20
2022-09-07T14:42:23.637Z,1.10
2022-09-07T14:44:57.749Z,1.17
2022-09-07T14:47:29.431Z,1.08
2022-09-07T14:50:05.741Z,1.20
2022-09-07T14:52:43.041Z,1.40
2022-09-07T14:55:28.327Z,1.27
2022-09-07T14:58:31.039Z,1.20
2022-09-07T15:04:01.327Z,1.35
2022-09-07T15:09:35.955Z,0.90
2022-09-07T15:12:11.354Z,1.10
2022-09-07T15:14:39.405Z,1.08
2022-09-07T15:19:55.595Z,1.10
2022-09-07T15:22:23.804Z,1.50
2022-09-07T15:24:55.156Z,1.30
2022-09-07T15:27:28.696Z,0.90
2022-09-07T15:29:56.751Z,1.23
2022-09-07T15:32:24.851Z,1.27
2022-09-07T15:34:53.028Z,1.00
2022-09-07T15:40:17.552Z,1.33
2022-09-07T15:43:03.105Z,0.98
2022-09-07T15:45:33.737Z,1.40
2022-09-07T15:48:01.785Z,1.02
2022-09-07T15:50:29.812Z,1.23
2022-09-07T15:53:00.641Z,1.08
2022-09-07T15:55:30.510Z,1.05
2022-09-07T15:58:11.011Z,1.50
2022-09-07T16:00:40.181Z,1.30
2022-09-07T16:03:09.027Z,1.38
2022-09-07T16:05:40.682Z,1.67
2022-09-07T16:11:05.443Z,1.63
2022-09-07T16:13:33.926Z,1.95
2022-09-07T16:16:02.082Z,1.80
2022-09-07T16:18:31.554Z,1.77
2022-09-07T16:21:05.895Z,1.83
2022-09-07T16:23:34.117Z,1.80
2022-09-07T16:26:05.346Z,2.20
2022-09-07T16:28:33.738Z,1.45
2022-09-07T16:31:06.857Z,1.88
2022-09-07T16:33:37.141Z,1.70
2022-09-07T16:36:09.131Z,1.85
2022-09-07T16:38:45.467Z,1.90
2022-09-07T16:41:17.259Z,1.60
2022-09-07T16:43:46.094Z,1.55
2022-09-07T16:46:16.669Z,1.98
2022-09-07T16:48:45.250Z,1.70
2022-09-07T16:51:15.051Z,1.60
2022-09-07T16:53:43.300Z,1.60
2022-09-07T16:56:13.528Z,1.92
2022-09-07T16:58:44.438Z,1.80
2022-09-07T17:01:14.079Z,1.90
2022-09-07T17:03:42.643Z,1.50
2022-09-07T17:06:12.708Z,1.92
2022-09-07T17:08:41.435Z,1.73
2022-09-07T17:11:11.351Z,2.08
2022-09-07T17:13:40.952Z,1.60
2022-09-07T17:16:11.859Z,1.77
2022-09-07T17:21:31.082Z,2.10
2022-09-07T17:23:59.758Z,3.03
2022-09-07T17:26:28.067Z,3.42
2022-09-07T17:29:00.384Z,3.15
2022-09-07T17:34:20.619Z,2.92
2022-09-07T17:36:49.101Z,2.85
2022-09-07T17:39:18.768Z,2.80
2022-09-07T17:41:48.136Z,3.00
2022-09-07T17:44:16.342Z,3.92
2022-09-07T17:46:45.909Z,5.18
2022-09-07T17:49:16.534Z,6.95
2022-09-07T17:51:45.584Z,6.18
2022-09-07T17:54:16.683Z,4.80
2022-09-07T17:56:46.183Z,2.60
2022-09-07T18:02:03.912Z,2.10
2022-09-07T18:04:32.016Z,2.00
2022-09-07T18:07:00.057Z,1.90
2022-09-07T18:09:28.181Z,1.88
2022-09-07T18:11:56.204Z,1.85
2022-09-07T18:14:24.270Z,2.50
2022-09-07T18:16:52.610Z,1.90
2022-09-07T18:19:22.087Z,2.00
2022-09-07T18:21:50.661Z,1.90
2022-09-07T18:24:21.921Z,2.45
2022-09-07T18:26:52.313Z,1.80
2022-09-07T18:29:36.753Z,2.00
2022-09-07T18:32:09.343Z,1.92
2022-09-07T18:34:41.260Z,1.70
2022-09-07T18:37:12.205Z,2.15
2022-09-07T18:39:40.883Z,2.60
2022-09-07T18:42:09.934Z,2.40
2022-09-07T18:47:28.666Z,3.88
2022-09-07T18:49:59.226Z,3.13
2022-09-07T18:55:16.566Z,7.75
2022-09-07T18:57:44.922Z,2.28
2022-09-07T19:00:14.542Z,2.10
2022-09-07T19:02:42.940Z,2.10
2022-09-07T19:08:03.384Z,2.05
2022-09-07T19:10:34.288Z,2.30
2022-09-07T19:13:02.320Z,2.15
2022-09-07T19:15:33.165Z,2.15
2022-09-07T19:18:05.746Z,2.50
2022-09-07T19:20:36.416Z,2.30
2022-09-07T19:23:04.691Z,2.42
2022-09-07T19:25:32.748Z,2.30
2022-09-07T19:28:00.820Z,2.30
2022-09-07T19:30:29.092Z,2.70
2022-09-07T19:33:00.715Z,2.20
2022-09-07T19:35:35.172Z,2.30
2022-09-07T19:38:04.741Z,2.35
2022-09-07T19:40:32.814Z,2.22
2022-09-07T19:43:00.835Z,2.50
2022-09-07T19:45:29.434Z,2.88
2022-09-07T19:47:57.462Z,2.10
2022-09-07T19:50:26.119Z,2.40
2022-09-07T19:52:54.160Z,2.45
2022-09-07T19:55:23.585Z,3.20
2022-09-07T19:57:52.512Z,2.55
2022-09-07T20:00:20.628Z,2.22
2022-09-07T20:02:49.933Z,2.30
2022-09-07T20:05:18.124Z,2.33
2022-09-07T20:07:46.238Z,3.55
2022-09-07T20:10:14.288Z,2.60
2022-09-07T20:12:43.707Z,2.30
2022-09-07T20:15:11.824Z,2.47
2022-09-07T20:17:39.854Z,2.83
2022-09-07T20:20:08.945Z,2.70
2022-09-07T20:22:36.973Z,2.47
2022-09-07T20:25:05.560Z,2.63
2022-09-07T20:27:35.826Z,2.97
2022-09-07T20:30:06.507Z,2.63
2022-09-07T20:32:35.539Z,2.63
2022-09-07T20:35:03.587Z,2.58
2022-09-07T20:37:31.626Z,3.00
2022-09-07T20:39:59.689Z,2.72
2022-09-07T20:42:27.803Z,2.85
2022-09-07T20:44:55.811Z,3.05
2022-09-07T20:47:25.311Z,2.83
2022-09-07T20:49:53.327Z,2.75
2022-09-07T20:52:21.555Z,2.80
2022-09-07T20:54:49.568Z,2.92
2022-09-07T20:57:17.739Z,3.05
2022-09-07T20:59:45.742Z,3.17
2022-09-07T21:02:13.830Z,3.05
2022-09-07T21:04:43.423Z,3.10
2022-09-07T21:07:11.555Z,3.40
2022-09-07T21:09:39.558Z,3.15
2022-09-07T21:12:07.841Z,3.00
2022-09-07T21:14:35.856Z,2.90
2022-09-07T21:17:03.927Z,3.30
2022-09-07T21:19:31.931Z,3.53
2022-09-07T21:22:01.418Z,3.30
2022-09-07T21:24:29.495Z,3.40
2022-09-07T21:26:57.532Z,2.90
2022-09-07T21:29:27.044Z,3.53
2022-09-07T21:31:55.662Z,3.10
2022-09-07T21:34:24.499Z,3.03
2022-09-07T21:36:53.289Z,3.10
2022-09-07T21:39:22.816Z,2.85
2022-09-07T21:41:50.874Z,3.05
2022-09-07T21:44:19.127Z,3.40
2022-09-07T21:46:47.400Z,3.17
2022-09-07T21:49:15.464Z,3.10
2022-09-07T21:51:43.514Z,3.35
2022-09-07T21:54:11.541Z,3.08
2022-09-07T21:56:44.543Z,3.65
2022-09-07T21:59:15.008Z,3.20
2022-09-07T22:01:43.117Z,3.45
2022-09-07T22:04:12.064Z,3.08
2022-09-07T22:06:41.081Z,2.90
2022-09-07T22:09:09.137Z,3.00
2022-09-07T22:11:37.233Z,3.03
2022-09-07T22:14:06.960Z,3.30
2022-09-07T22:16:36.235Z,3.22
2022-09-07T22:19:04.465Z,3.70
2022-09-07T22:21:32.656Z,3.08
2022-09-07T22:24:02.326Z,2.83
2022-09-07T22:26:32.780Z,3.15
2022-09-07T22:29:01.011Z,3.00
2022-09-07T22:31:32.401Z,2.55
2022-09-07T22:34:01.783Z,2.95
2022-09-07T22:36:32.420Z,2.78
2022-09-07T22:39:02.296Z,2.78
2022-09-07T22:41:32.689Z,2.90
2022-09-07T22:44:01.092Z,2.65
2022-09-07T22:46:32.726Z,2.80
2022-09-07T22:49:00.974Z,3.00
2022-09-07T22:51:29.411Z,3.10
2022-09-07T22:53:58.146Z,3.40
2022-09-07T22:56:27.856Z,3.08
2022-09-07T22:58:57.893Z,3.08
2022-09-07T23:01:26.476Z,3.15
2022-09-07T23:03:56.783Z,3.30
2022-09-07T23:06:27.118Z,3.53
2022-09-07T23:08:56.416Z,3.50
2022-09-07T23:11:25.149Z,3.05
2022-09-07T23:13:54.130Z,3.10
2022-09-07T23:16:22.715Z,3.40
2022-09-07T23:18:51.001Z,3.22
2022-09-07T23:21:20.824Z,2.97
2022-09-07T23:23:53.040Z,3.03
2022-09-07T23:26:22.035Z,3.50
2022-09-07T23:28:53.569Z,2.90
2022-09-07T23:31:22.090Z,3.13
2022-09-07T23:33:50.495Z,2.70
2022-09-07T23:36:20.250Z,3.30
2022-09-07T23:38:49.465Z,3.22
2022-09-07T23:41:18.609Z,3.13
2022-09-07T23:43:47.016Z,3.20
2022-09-07T23:46:15.576Z,2.90
2022-09-07T23:48:45.092Z,3.22
2022-09-07T23:51:13.964Z,2.88
2022-09-07T23:53:43.401Z,3.33
2022-09-07T23:56:12.249Z,3.45
2022-09-07T23:58:40.337Z,3.15
